sensor_id;sensor_type;location;lat;lon;timestamp;P1;durP1;ratioP1;P2;durP2;ratioP2
2390;SDS011;22957;50.824;4.360;2023-10-08T00:01:14;4.40;;;2.20;;
2390;SDS011;22957;50.824;4.360;2023-10-08T00:03:41;5.07;;;2.20;;
2390;SDS011;22957;50.824;4.360;2023-10-08T00:06:15;4.17;;;2.07;;
2390;SDS011;22957;50.824;4.360;2023-10-08T00:08:41;4.00;;;2.60;;
2390;SDS011;22957;50.824;4.360;2023-10-08T00:11:07;5.30;;;2.30;;
2390;SDS011;22957;50.824;4.360;2023-10-08T00:13:35;7.10;;;2.00;;
2390;SDS011;22957;50.824;4.360;2023-10-08T00:16:14;5.83;;;2.40;;
2390;SDS011;22957;50.824;4.360;2023-10-08T00:18:41;4.03;;;2.10;;
2390;SDS011;22957;50.824;4.360;2023-10-08T00:21:17;7.67;;;2.27;;
2390;SDS011;22957;50.824;4.360;2023-10-08T00:23:45;4.00;;;2.23;;
2390;SDS011;22957;50.824;4.360;2023-10-08T00:26:18;6.17;;;2.70;;
2390;SDS011;22957;50.824;4.360;2023-10-08T00:28:52;3.70;;;2.03;;
2390;SDS011;22957;50.824;4.360;2023-10-08T00:31:47;4.30;;;2.30;;
2390;SDS011;22957;50.824;4.360;2023-10-08T00:34:15;4.63;;;2.30;;
2390;SDS011;22957;50.824;4.360;2023-10-08T00:36:43;5.93;;;2.23;;
2390;SDS011;22957;50.824;4.360;2023-10-08T00:39:11;8.33;;;2.50;;
2390;SDS011;22957;50.824;4.360;2023-10-08T00:41:47;6.53;;;2.30;;
2390;SDS011;22957;50.824;4.360;2023-10-08T00:44:14;7.87;;;2.00;;
2390;SDS011;22957;50.824;4.360;2023-10-08T00:46:49;4.97;;;2.37;;
2390;SDS011;22957;50.824;4.360;2023-10-08T00:49:16;3.90;;;2.03;;
2390;SDS011;22957;50.824;4.360;2023-10-08T00:51:46;6.43;;;2.17;;
2390;SDS011;22957;50.824;4.360;2023-10-08T00:54:13;6.43;;;2.83;;
2390;SDS011;22957;50.824;4.360;2023-10-08T00:56:44;5.67;;;2.60;;
2390;SDS011;22957;50.824;4.360;2023-10-08T00:59:14;4.33;;;2.37;;
2390;SDS011;22957;50.824;4.360;2023-10-08T01:01:47;4.43;;;2.30;;
2390;SDS011;22957;50.824;4.360;2023-10-08T01:04:20;6.23;;;3.07;;
2390;SDS011;22957;50.824;4.360;2023-10-08T01:06:56;4.70;;;2.57;;
2390;SDS011;22957;50.824;4.360;2023-10-08T01:09:38;4.07;;;2.10;;
2390;SDS011;22957;50.824;4.360;2023-10-08T01:12:14;4.07;;;2.70;;
2390;SDS011;22957;50.824;4.360;2023-10-08T01:14:52;7.43;;;3.40;;
2390;SDS011;22957;50.824;4.360;2023-10-08T01:17:22;6.13;;;2.63;;
2390;SDS011;22957;50.824;4.360;2023-10-08T01:19:52;5.47;;;2.53;;
2390;SDS011;22957;50.824;4.360;2023-10-08T01:22:40;5.10;;;2.43;;
2390;SDS011;22957;50.824;4.360;2023-10-08T01:25:06;4.97;;;2.30;;
2390;SDS011;22957;50.824;4.360;2023-10-08T01:27:35;4.13;;;2.40;;
2390;SDS011;22957;50.824;4.360;2023-10-08T01:30:02;5.53;;;2.60;;
2390;SDS011;22957;50.824;4.360;2023-10-08T01:32:42;6.83;;;2.67;;
2390;SDS011;22957;50.824;4.360;2023-10-08T01:35:09;6.27;;;2.20;;
2390;SDS011;22957;50.824;4.360;2023-10-08T01:37:48;6.13;;;2.73;;
2390;SDS011;22957;50.824;4.360;2023-10-08T01:40:15;7.87;;;3.07;;
2390;SDS011;22957;50.824;4.360;2023-10-08T01:42:42;5.13;;;2.47;;
2390;SDS011;22957;50.824;4.360;2023-10-08T01:45:07;15.93;;;2.93;;
2390;SDS011;22957;50.824;4.360;2023-10-08T01:47:35;10.30;;;2.80;;
2390;SDS011;22957;50.824;4.360;2023-10-08T01:50:01;6.70;;;2.90;;
2390;SDS011;22957;50.824;4.360;2023-10-08T01:52:30;7.30;;;3.00;;
2390;SDS011;22957;50.824;4.360;2023-10-08T01:54:56;4.50;;;2.13;;
2390;SDS011;22957;50.824;4.360;2023-10-08T01:57:23;4.53;;;2.70;;
2390;SDS011;22957;50.824;4.360;2023-10-08T01:59:48;5.70;;;2.90;;
2390;SDS011;22957;50.824;4.360;2023-10-08T02:02:14;6.47;;;2.50;;
2390;SDS011;22957;50.824;4.360;2023-10-08T02:04:42;8.23;;;2.30;;
2390;SDS011;22957;50.824;4.360;2023-10-08T02:07:08;4.70;;;2.30;;
2390;SDS011;22957;50.824;4.360;2023-10-08T02:09:37;5.67;;;3.03;;
2390;SDS011;22957;50.824;4.360;2023-10-08T02:12:06;6.60;;;2.63;;
2390;SDS011;22957;50.824;4.360;2023-10-08T02:14:33;6.13;;;3.17;;
2390;SDS011;22957;50.824;4.360;2023-10-08T02:17:00;7.93;;;2.90;;
2390;SDS011;22957;50.824;4.360;2023-10-08T02:19:31;5.10;;;2.93;;
2390;SDS011;22957;50.824;4.360;2023-10-08T02:21:57;6.30;;;2.90;;
2390;SDS011;22957;50.824;4.360;2023-10-08T02:24:24;4.20;;;2.60;;
2390;SDS011;22957;50.824;4.360;2023-10-08T02:26:51;4.70;;;2.30;;
2390;SDS011;22957;50.824;4.360;2023-10-08T02:29:17;6.43;;;2.20;;
2390;SDS011;22957;50.824;4.360;2023-10-08T02:31:43;7.57;;;2.60;;
2390;SDS011;22957;50.824;4.360;2023-10-08T02:34:09;4.90;;;2.73;;
2390;SDS011;22957;50.824;4.360;2023-10-08T02:36:37;8.90;;;2.60;;
2390;SDS011;22957;50.824;4.360;2023-10-08T02:39:06;7.63;;;2.63;;
2390;SDS011;22957;50.824;4.360;2023-10-08T02:41:46;5.73;;;2.20;;
2390;SDS011;22957;50.824;4.360;2023-10-08T02:44:13;6.80;;;2.23;;
2390;SDS011;22957;50.824;4.360;2023-10-08T02:46:43;6.57;;;2.60;;
2390;SDS011;22957;50.824;4.360;2023-10-08T02:49:12;5.30;;;2.87;;
2390;SDS011;22957;50.824;4.360;2023-10-08T02:51:44;4.43;;;2.37;;
2390;SDS011;22957;50.824;4.360;2023-10-08T02:54:10;8.80;;;2.93;;
2390;SDS011;22957;50.824;4.360;2023-10-08T02:56:51;14.07;;;2.37;;
2390;SDS011;22957;50.824;4.360;2023-10-08T02:59:20;5.60;;;2.40;;
2390;SDS011;22957;50.824;4.360;2023-10-08T03:01:47;6.90;;;2.70;;
2390;SDS011;22957;50.824;4.360;2023-10-08T03:04:22;6.60;;;2.93;;
2390;SDS011;22957;50.824;4.360;2023-10-08T03:06:49;7.30;;;2.40;;
2390;SDS011;22957;50.824;4.360;2023-10-08T03:09:16;5.97;;;2.37;;
2390;SDS011;22957;50.824;4.360;2023-10-08T03:11:46;6.90;;;2.60;;
2390;SDS011;22957;50.824;4.360;2023-10-08T03:14:13;6.80;;;2.47;;
2390;SDS011;22957;50.824;4.360;2023-10-08T03:16:52;6.43;;;2.70;;
2390;SDS011;22957;50.824;4.360;2023-10-08T03:19:20;9.20;;;3.20;;
2390;SDS011;22957;50.824;4.360;2023-10-08T03:21:47;4.60;;;2.73;;
2390;SDS011;22957;50.824;4.360;2023-10-08T03:24:16;7.20;;;2.77;;
2390;SDS011;22957;50.824;4.360;2023-10-08T03:27:02;5.20;;;2.57;;
2390;SDS011;22957;50.824;4.360;2023-10-08T03:29:48;6.00;;;3.03;;
2390;SDS011;22957;50.824;4.360;2023-10-08T03:32:14;8.40;;;3.10;;
2390;SDS011;22957;50.824;4.360;2023-10-08T03:34:44;6.63;;;2.90;;
2390;SDS011;22957;50.824;4.360;2023-10-08T03:37:17;8.10;;;3.40;;
2390;SDS011;22957;50.824;4.360;2023-10-08T03:39:49;10.17;;;2.40;;
2390;SDS011;22957;50.824;4.360;2023-10-08T03:42:34;7.43;;;3.10;;
2390;SDS011;22957;50.824;4.360;2023-10-08T03:45:05;5.20;;;2.53;;
2390;SDS011;22957;50.824;4.360;2023-10-08T03:47:38;9.37;;;3.60;;
2390;SDS011;22957;50.824;4.360;2023-10-08T03:50:06;4.60;;;2.60;;
2390;SDS011;22957;50.824;4.360;2023-10-08T03:52:34;4.97;;;3.20;;
2390;SDS011;22957;50.824;4.360;2023-10-08T03:55:04;7.27;;;3.03;;
2390;SDS011;22957;50.824;4.360;2023-10-08T03:57:38;5.00;;;2.30;;
2390;SDS011;22957;50.824;4.360;2023-10-08T04:00:10;7.43;;;3.23;;
2390;SDS011;22957;50.824;4.360;2023-10-08T04:02:44;8.40;;;3.27;;
2390;SDS011;22957;50.824;4.360;2023-10-08T04:05:26;6.53;;;3.10;;
2390;SDS011;22957;50.824;4.360;2023-10-08T04:08:09;4.93;;;2.37;;
2390;SDS011;22957;50.824;4.360;2023-10-08T04:11:07;7.47;;;2.70;;
2390;SDS011;22957;50.824;4.360;2023-10-08T04:13:55;6.10;;;3.03;;
2390;SDS011;22957;50.824;4.360;2023-10-08T04:16:24;4.10;;;1.93;;
2390;SDS011;22957;50.824;4.360;2023-10-08T04:18:52;6.43;;;2.10;;
2390;SDS011;22957;50.824;4.360;2023-10-08T04:21:21;16.03;;;3.40;;
2390;SDS011;22957;50.824;4.360;2023-10-08T04:23:47;6.87;;;2.33;;
2390;SDS011;22957;50.824;4.360;2023-10-08T04:26:16;8.90;;;2.77;;
2390;SDS011;22957;50.824;4.360;2023-10-08T04:28:48;6.00;;;2.70;;
2390;SDS011;22957;50.824;4.360;2023-10-08T04:31:15;4.70;;;2.37;;
2390;SDS011;22957;50.824;4.360;2023-10-08T04:33:41;7.00;;;3.33;;
2390;SDS011;22957;50.824;4.360;2023-10-08T04:36:09;6.30;;;2.23;;
2390;SDS011;22957;50.824;4.360;2023-10-08T04:38:39;7.80;;;3.63;;
2390;SDS011;22957;50.824;4.360;2023-10-08T04:41:05;5.30;;;2.77;;
2390;SDS011;22957;50.824;4.360;2023-10-08T04:43:34;9.17;;;3.30;;
2390;SDS011;22957;50.824;4.360;2023-10-08T04:46:03;5.17;;;2.77;;
2390;SDS011;22957;50.824;4.360;2023-10-08T04:48:48;7.60;;;2.80;;
2390;SDS011;22957;50.824;4.360;2023-10-08T04:51:15;7.03;;;2.90;;
2390;SDS011;22957;50.824;4.360;2023-10-08T04:53:43;6.10;;;2.40;;
2390;SDS011;22957;50.824;4.360;2023-10-08T04:56:11;6.33;;;3.60;;
2390;SDS011;22957;50.824;4.360;2023-10-08T04:58:48;5.73;;;3.10;;
2390;SDS011;22957;50.824;4.360;2023-10-08T05:01:14;8.30;;;4.10;;
2390;SDS011;22957;50.824;4.360;2023-10-08T05:03:43;8.23;;;2.20;;
2390;SDS011;22957;50.824;4.360;2023-10-08T05:06:30;7.83;;;2.27;;
2390;SDS011;22957;50.824;4.360;2023-10-08T05:09:11;7.63;;;3.13;;
2390;SDS011;22957;50.824;4.360;2023-10-08T05:11:47;5.17;;;2.77;;
2390;SDS011;22957;50.824;4.360;2023-10-08T05:14:21;6.07;;;2.63;;
2390;SDS011;22957;50.824;4.360;2023-10-08T05:16:57;8.83;;;2.60;;
2390;SDS011;22957;50.824;4.360;2023-10-08T05:19:28;7.90;;;2.73;;
2390;SDS011;22957;50.824;4.360;2023-10-08T05:22:07;9.70;;;2.37;;
2390;SDS011;22957;50.824;4.360;2023-10-08T05:24:46;9.47;;;2.27;;
2390;SDS011;22957;50.824;4.360;2023-10-08T05:27:35;6.03;;;3.00;;
2390;SDS011;22957;50.824;4.360;2023-10-08T05:30:14;5.97;;;2.83;;
2390;SDS011;22957;50.824;4.360;2023-10-08T05:32:53;9.93;;;3.67;;
2390;SDS011;22957;50.824;4.360;2023-10-08T05:35:32;5.97;;;2.77;;
2390;SDS011;22957;50.824;4.360;2023-10-08T05:40:55;5.97;;;2.20;;
2390;SDS011;22957;50.824;4.360;2023-10-08T05:43:28;7.53;;;2.83;;
2390;SDS011;22957;50.824;4.360;2023-10-08T05:46:07;5.23;;;2.17;;
2390;SDS011;22957;50.824;4.360;2023-10-08T05:48:53;7.50;;;2.97;;
2390;SDS011;22957;50.824;4.360;2023-10-08T05:51:28;4.70;;;2.60;;
2390;SDS011;22957;50.824;4.360;2023-10-08T05:54:24;8.90;;;3.50;;
2390;SDS011;22957;50.824;4.360;2023-10-08T05:56:59;6.03;;;2.80;;
2390;SDS011;22957;50.824;4.360;2023-10-08T05:59:39;5.70;;;2.93;;
2390;SDS011;22957;50.824;4.360;2023-10-08T06:10:19;5.47;;;2.30;;
2390;SDS011;22957;50.824;4.360;2023-10-08T06:12:52;5.60;;;3.13;;
2390;SDS011;22957;50.824;4.360;2023-10-08T06:15:27;6.70;;;3.03;;
2390;SDS011;22957;50.824;4.360;2023-10-08T06:18:13;7.33;;;3.10;;
2390;SDS011;22957;50.824;4.360;2023-10-08T06:20:43;8.60;;;2.60;;
2390;SDS011;22957;50.824;4.360;2023-10-08T06:23:10;6.90;;;3.33;;
2390;SDS011;22957;50.824;4.360;2023-10-08T06:25:43;6.60;;;3.13;;
2390;SDS011;22957;50.824;4.360;2023-10-08T06:28:16;9.30;;;2.73;;
2390;SDS011;22957;50.824;4.360;2023-10-08T06:30:49;9.07;;;3.63;;
2390;SDS011;22957;50.824;4.360;2023-10-08T06:33:20;6.13;;;2.17;;
2390;SDS011;22957;50.824;4.360;2023-10-08T06:35:47;9.43;;;3.40;;
2390;SDS011;22957;50.824;4.360;2023-10-08T06:38:28;7.60;;;3.67;;
2390;SDS011;22957;50.824;4.360;2023-10-08T06:40:56;4.57;;;3.00;;
2390;SDS011;22957;50.824;4.360;2023-10-08T06:43:25;6.20;;;3.13;;
2390;SDS011;22957;50.824;4.360;2023-10-08T06:45:54;3.67;;;2.30;;
2390;SDS011;22957;50.824;4.360;2023-10-08T06:48:23;6.07;;;2.20;;
2390;SDS011;22957;50.824;4.360;2023-10-08T06:50:50;5.43;;;2.73;;
2390;SDS011;22957;50.824;4.360;2023-10-08T06:53:22;10.00;;;3.33;;
2390;SDS011;22957;50.824;4.360;2023-10-08T06:55:48;4.53;;;2.30;;
2390;SDS011;22957;50.824;4.360;2023-10-08T06:58:21;6.10;;;2.80;;
2390;SDS011;22957;50.824;4.360;2023-10-08T07:00:50;6.00;;;2.87;;
2390;SDS011;22957;50.824;4.360;2023-10-08T07:03:17;6.63;;;3.53;;
2390;SDS011;22957;50.824;4.360;2023-10-08T07:05:44;10.40;;;4.60;;
2390;SDS011;22957;50.824;4.360;2023-10-08T07:08:19;8.13;;;3.40;;
2390;SDS011;22957;50.824;4.360;2023-10-08T07:10:48;5.87;;;3.03;;
2390;SDS011;22957;50.824;4.360;2023-10-08T07:13:14;6.30;;;2.63;;
2390;SDS011;22957;50.824;4.360;2023-10-08T07:15:42;7.30;;;3.37;;
2390;SDS011;22957;50.824;4.360;2023-10-08T07:18:10;6.80;;;3.07;;
2390;SDS011;22957;50.824;4.360;2023-10-08T07:20:44;7.87;;;3.13;;
2390;SDS011;22957;50.824;4.360;2023-10-08T07:23:10;8.80;;;3.20;;
2390;SDS011;22957;50.824;4.360;2023-10-08T07:26:06;4.07;;;2.47;;
2390;SDS011;22957;50.824;4.360;2023-10-08T07:28:43;5.63;;;2.77;;
2390;SDS011;22957;50.824;4.360;2023-10-08T07:31:14;6.43;;;3.30;;
2390;SDS011;22957;50.824;4.360;2023-10-08T07:33:46;5.50;;;2.20;;
2390;SDS011;22957;50.824;4.360;2023-10-08T07:36:13;7.87;;;3.00;;
2390;SDS011;22957;50.824;4.360;2023-10-08T07:38:43;6.63;;;2.60;;
2390;SDS011;22957;50.824;4.360;2023-10-08T07:41:09;7.90;;;2.90;;
2390;SDS011;22957;50.824;4.360;2023-10-08T07:43:40;7.63;;;3.50;;
2390;SDS011;22957;50.824;4.360;2023-10-08T07:46:07;9.97;;;3.43;;
2390;SDS011;22957;50.824;4.360;2023-10-08T07:48:33;19.23;;;3.63;;
2390;SDS011;22957;50.824;4.360;2023-10-08T07:50:58;4.33;;;2.17;;
2390;SDS011;22957;50.824;4.360;2023-10-08T07:53:24;5.57;;;2.80;;
2390;SDS011;22957;50.824;4.360;2023-10-08T07:55:51;4.70;;;2.67;;
2390;SDS011;22957;50.824;4.360;2023-10-08T07:58:17;7.10;;;3.83;;
2390;SDS011;22957;50.824;4.360;2023-10-08T08:00:43;8.13;;;3.60;;
2390;SDS011;22957;50.824;4.360;2023-10-08T08:03:19;8.10;;;3.93;;
2390;SDS011;22957;50.824;4.360;2023-10-08T08:05:46;6.30;;;2.93;;
2390;SDS011;22957;50.824;4.360;2023-10-08T08:08:13;6.97;;;3.10;;
2390;SDS011;22957;50.824;4.360;2023-10-08T08:10:43;7.50;;;3.27;;
2390;SDS011;22957;50.824;4.360;2023-10-08T08:13:09;6.40;;;3.07;;
2390;SDS011;22957;50.824;4.360;2023-10-08T08:15:35;7.70;;;3.13;;
2390;SDS011;22957;50.824;4.360;2023-10-08T08:18:06;12.07;;;3.00;;
2390;SDS011;22957;50.824;4.360;2023-10-08T08:20:34;6.87;;;2.70;;
2390;SDS011;22957;50.824;4.360;2023-10-08T08:23:04;12.17;;;3.27;;
2390;SDS011;22957;50.824;4.360;2023-10-08T08:25:37;9.40;;;2.83;;
2390;SDS011;22957;50.824;4.360;2023-10-08T08:28:10;6.67;;;3.60;;
2390;SDS011;22957;50.824;4.360;2023-10-08T08:30:44;8.57;;;3.40;;
2390;SDS011;22957;50.824;4.360;2023-10-08T08:33:12;6.97;;;3.33;;
2390;SDS011;22957;50.824;4.360;2023-10-08T08:35:39;7.87;;;3.60;;
2390;SDS011;22957;50.824;4.360;2023-10-08T08:38:04;8.73;;;3.17;;
2390;SDS011;22957;50.824;4.360;2023-10-08T08:40:31;10.47;;;3.20;;
2390;SDS011;22957;50.824;4.360;2023-10-08T08:42:57;6.43;;;3.20;;
2390;SDS011;22957;50.824;4.360;2023-10-08T08:45:27;8.23;;;3.10;;
2390;SDS011;22957;50.824;4.360;2023-10-08T08:47:58;7.17;;;3.40;;
2390;SDS011;22957;50.824;4.360;2023-10-08T08:50:25;8.50;;;3.93;;
2390;SDS011;22957;50.824;4.360;2023-10-08T08:52:52;6.50;;;2.60;;
2390;SDS011;22957;50.824;4.360;2023-10-08T08:55:17;7.97;;;4.00;;
2390;SDS011;22957;50.824;4.360;2023-10-08T08:57:49;7.80;;;3.50;;
2390;SDS011;22957;50.824;4.360;2023-10-08T09:00:18;9.77;;;4.30;;
2390;SDS011;22957;50.824;4.360;2023-10-08T09:02:45;10.97;;;4.00;;
2390;SDS011;22957;50.824;4.360;2023-10-08T09:05:12;6.53;;;3.83;;
2390;SDS011;22957;50.824;4.360;2023-10-08T09:07:52;7.67;;;3.30;;
2390;SDS011;22957;50.824;4.360;2023-10-08T09:10:17;8.10;;;4.20;;
2390;SDS011;22957;50.824;4.360;2023-10-08T09:12:43;11.73;;;4.67;;
2390;SDS011;22957;50.824;4.360;2023-10-08T09:15:10;9.63;;;3.43;;
2390;SDS011;22957;50.824;4.360;2023-10-08T09:17:37;7.03;;;3.60;;
2390;SDS011;22957;50.824;4.360;2023-10-08T09:20:05;6.90;;;3.50;;
2390;SDS011;22957;50.824;4.360;2023-10-08T09:22:32;8.97;;;4.13;;
2390;SDS011;22957;50.824;4.360;2023-10-08T09:24:57;13.23;;;3.70;;
2390;SDS011;22957;50.824;4.360;2023-10-08T09:27:24;7.17;;;3.57;;
2390;SDS011;22957;50.824;4.360;2023-10-08T09:29:51;10.47;;;4.37;;
2390;SDS011;22957;50.824;4.360;2023-10-08T09:32:16;11.27;;;4.53;;
2390;SDS011;22957;50.824;4.360;2023-10-08T09:34:48;12.53;;;4.60;;
2390;SDS011;22957;50.824;4.360;2023-10-08T09:37:15;8.87;;;4.00;;
2390;SDS011;22957;50.824;4.360;2023-10-08T09:39:42;13.70;;;5.00;;
2390;SDS011;22957;50.824;4.360;2023-10-08T09:42:10;12.00;;;5.20;;
2390;SDS011;22957;50.824;4.360;2023-10-08T09:44:37;13.43;;;4.70;;
2390;SDS011;22957;50.824;4.360;2023-10-08T09:47:05;15.60;;;4.40;;
2390;SDS011;22957;50.824;4.360;2023-10-08T09:49:56;12.83;;;4.67;;
2390;SDS011;22957;50.824;4.360;2023-10-08T09:52:29;8.23;;;4.80;;
2390;SDS011;22957;50.824;4.360;2023-10-08T09:55:02;8.00;;;4.13;;
2390;SDS011;22957;50.824;4.360;2023-10-08T09:57:35;6.70;;;3.90;;
2390;SDS011;22957;50.824;4.360;2023-10-08T10:00:02;14.50;;;4.37;;
2390;SDS011;22957;50.824;4.360;2023-10-08T10:02:30;14.73;;;4.50;;
2390;SDS011;22957;50.824;4.360;2023-10-08T10:04:57;8.73;;;3.70;;
2390;SDS011;22957;50.824;4.360;2023-10-08T10:07:25;10.80;;;4.10;;
2390;SDS011;22957;50.824;4.360;2023-10-08T10:09:52;10.23;;;4.50;;
2390;SDS011;22957;50.824;4.360;2023-10-08T10:12:21;6.73;;;3.37;;
2390;SDS011;22957;50.824;4.360;2023-10-08T10:14:54;9.73;;;4.50;;
2390;SDS011;22957;50.824;4.360;2023-10-08T10:17:27;12.67;;;4.60;;
2390;SDS011;22957;50.824;4.360;2023-10-08T10:19:57;9.67;;;4.47;;
2390;SDS011;22957;50.824;4.360;2023-10-08T10:22:30;12.40;;;4.30;;
2390;SDS011;22957;50.824;4.360;2023-10-08T10:25:00;11.97;;;3.63;;
2390;SDS011;22957;50.824;4.360;2023-10-08T10:27:39;8.47;;;4.60;;
2390;SDS011;22957;50.824;4.360;2023-10-08T10:30:20;8.60;;;4.57;;
2390;SDS011;22957;50.824;4.360;2023-10-08T10:32:51;11.10;;;5.03;;
2390;SDS011;22957;50.824;4.360;2023-10-08T10:35:17;11.27;;;6.27;;
2390;SDS011;22957;50.824;4.360;2023-10-08T10:37:44;25.87;;;10.10;;
2390;SDS011;22957;50.824;4.360;2023-10-08T10:40:19;26.70;;;11.63;;
2390;SDS011;22957;50.824;4.360;2023-10-08T10:42:56;25.30;;;7.83;;
2390;SDS011;22957;50.824;4.360;2023-10-08T10:45:22;13.73;;;5.33;;
2390;SDS011;22957;50.824;4.360;2023-10-08T10:48:08;15.80;;;4.83;;
2390;SDS011;22957;50.824;4.360;2023-10-08T10:50:49;9.37;;;5.17;;
2390;SDS011;22957;50.824;4.360;2023-10-08T10:53:37;8.07;;;4.43;;
2390;SDS011;22957;50.824;4.360;2023-10-08T10:56:13;6.83;;;3.60;;
2390;SDS011;22957;50.824;4.360;2023-10-08T10:58:49;9.80;;;4.40;;
2390;SDS011;22957;50.824;4.360;2023-10-08T11:01:21;12.47;;;4.87;;
2390;SDS011;22957;50.824;4.360;2023-10-08T11:03:52;13.50;;;4.37;;
2390;SDS011;22957;50.824;4.360;2023-10-08T11:06:21;12.50;;;4.83;;
2390;SDS011;22957;50.824;4.360;2023-10-08T11:08:51;13.13;;;5.60;;
2390;SDS011;22957;50.824;4.360;2023-10-08T11:11:19;10.70;;;5.03;;
2390;SDS011;22957;50.824;4.360;2023-10-08T11:13:52;11.83;;;4.77;;
2390;SDS011;22957;50.824;4.360;2023-10-08T11:16:25;9.70;;;4.80;;
2390;SDS011;22957;50.824;4.360;2023-10-08T11:18:52;8.37;;;3.77;;
2390;SDS011;22957;50.824;4.360;2023-10-08T11:21:22;8.20;;;5.00;;
2390;SDS011;22957;50.824;4.360;2023-10-08T11:23:50;13.13;;;5.43;;
2390;SDS011;22957;50.824;4.360;2023-10-08T11:26:24;8.63;;;4.07;;
2390;SDS011;22957;50.824;4.360;2023-10-08T11:29:00;11.30;;;4.20;;
2390;SDS011;22957;50.824;4.360;2023-10-08T11:31:28;10.40;;;3.93;;
2390;SDS011;22957;50.824;4.360;2023-10-08T11:33:58;10.63;;;4.80;;
2390;SDS011;22957;50.824;4.360;2023-10-08T11:36:26;9.67;;;4.57;;
2390;SDS011;22957;50.824;4.360;2023-10-08T11:38:57;13.50;;;4.87;;
2390;SDS011;22957;50.824;4.360;2023-10-08T11:41:33;10.90;;;5.60;;
2390;SDS011;22957;50.824;4.360;2023-10-08T11:44:17;8.00;;;4.23;;
2390;SDS011;22957;50.824;4.360;2023-10-08T11:46:48;12.70;;;5.40;;
2390;SDS011;22957;50.824;4.360;2023-10-08T11:49:17;8.47;;;4.20;;
2390;SDS011;22957;50.824;4.360;2023-10-08T11:51:44;9.00;;;4.43;;
2390;SDS011;22957;50.824;4.360;2023-10-08T11:54:13;10.77;;;4.57;;
2390;SDS011;22957;50.824;4.360;2023-10-08T11:56:39;11.17;;;5.33;;
2390;SDS011;22957;50.824;4.360;2023-10-08T11:59:06;10.73;;;4.73;;
2390;SDS011;22957;50.824;4.360;2023-10-08T12:01:38;11.77;;;5.20;;
2390;SDS011;22957;50.824;4.360;2023-10-08T12:04:07;15.40;;;5.67;;
2390;SDS011;22957;50.824;4.360;2023-10-08T12:06:43;10.60;;;4.87;;
2390;SDS011;22957;50.824;4.360;2023-10-08T12:09:12;8.50;;;4.67;;
2390;SDS011;22957;50.824;4.360;2023-10-08T12:11:39;10.40;;;5.23;;
2390;SDS011;22957;50.824;4.360;2023-10-08T12:14:05;11.00;;;4.73;;
2390;SDS011;22957;50.824;4.360;2023-10-08T12:16:31;13.97;;;4.90;;
2390;SDS011;22957;50.824;4.360;2023-10-08T12:19:00;12.80;;;4.30;;
2390;SDS011;22957;50.824;4.360;2023-10-08T12:21:29;12.83;;;4.80;;
2390;SDS011;22957;50.824;4.360;2023-10-08T12:23:56;7.60;;;4.23;;
2390;SDS011;22957;50.824;4.360;2023-10-08T12:26:23;10.07;;;4.20;;
2390;SDS011;22957;50.824;4.360;2023-10-08T12:28:49;8.30;;;3.63;;
2390;SDS011;22957;50.824;4.360;2023-10-08T12:31:16;9.93;;;5.10;;
2390;SDS011;22957;50.824;4.360;2023-10-08T12:33:47;7.87;;;4.60;;
2390;SDS011;22957;50.824;4.360;2023-10-08T12:36:13;10.43;;;3.60;;
2390;SDS011;22957;50.824;4.360;2023-10-08T12:38:42;8.33;;;4.40;;
2390;SDS011;22957;50.824;4.360;2023-10-08T12:41:09;11.80;;;5.03;;
2390;SDS011;22957;50.824;4.360;2023-10-08T12:43:38;15.23;;;5.33;;
2390;SDS011;22957;50.824;4.360;2023-10-08T12:46:07;13.80;;;4.50;;
2390;SDS011;22957;50.824;4.360;2023-10-08T12:48:41;10.60;;;3.70;;
2390;SDS011;22957;50.824;4.360;2023-10-08T12:51:09;11.00;;;4.90;;
2390;SDS011;22957;50.824;4.360;2023-10-08T12:53:36;15.20;;;5.27;;
2390;SDS011;22957;50.824;4.360;2023-10-08T12:56:08;17.23;;;5.07;;
2390;SDS011;22957;50.824;4.360;2023-10-08T12:58:41;11.90;;;4.30;;
2390;SDS011;22957;50.824;4.360;2023-10-08T13:01:13;10.00;;;4.43;;
2390;SDS011;22957;50.824;4.360;2023-10-08T13:03:42;12.07;;;4.73;;
2390;SDS011;22957;50.824;4.360;2023-10-08T13:06:19;13.60;;;4.60;;
2390;SDS011;22957;50.824;4.360;2023-10-08T13:08:53;11.00;;;4.47;;
2390;SDS011;22957;50.824;4.360;2023-10-08T13:11:23;8.43;;;3.97;;
2390;SDS011;22957;50.824;4.360;2023-10-08T13:13:53;10.93;;;5.07;;
2390;SDS011;22957;50.824;4.360;2023-10-08T13:16:26;8.77;;;4.50;;
2390;SDS011;22957;50.824;4.360;2023-10-08T13:19:02;10.37;;;4.80;;
2390;SDS011;22957;50.824;4.360;2023-10-08T13:21:28;9.47;;;4.40;;
2390;SDS011;22957;50.824;4.360;2023-10-08T13:23:57;11.23;;;5.90;;
2390;SDS011;22957;50.824;4.360;2023-10-08T13:26:25;9.33;;;4.30;;
2390;SDS011;22957;50.824;4.360;2023-10-08T13:28:56;9.97;;;4.80;;
2390;SDS011;22957;50.824;4.360;2023-10-08T13:31:23;7.13;;;4.03;;
2390;SDS011;22957;50.824;4.360;2023-10-08T13:33:50;6.63;;;4.40;;
2390;SDS011;22957;50.824;4.360;2023-10-08T13:36:17;11.97;;;4.70;;
2390;SDS011;22957;50.824;4.360;2023-10-08T13:38:43;8.10;;;3.90;;
2390;SDS011;22957;50.824;4.360;2023-10-08T13:41:11;10.30;;;4.20;;
2390;SDS011;22957;50.824;4.360;2023-10-08T13:43:43;11.60;;;4.60;;
2390;SDS011;22957;50.824;4.360;2023-10-08T13:46:10;12.03;;;6.20;;
2390;SDS011;22957;50.824;4.360;2023-10-08T13:48:39;11.40;;;4.87;;
2390;SDS011;22957;50.824;4.360;2023-10-08T13:51:07;12.47;;;5.33;;
2390;SDS011;22957;50.824;4.360;2023-10-08T13:53:40;13.70;;;4.87;;
2390;SDS011;22957;50.824;4.360;2023-10-08T13:56:10;10.33;;;4.90;;
2390;SDS011;22957;50.824;4.360;2023-10-08T13:58:36;9.13;;;4.20;;
2390;SDS011;22957;50.824;4.360;2023-10-08T14:01:06;9.30;;;4.83;;
2390;SDS011;22957;50.824;4.360;2023-10-08T14:03:50;9.87;;;4.50;;
2390;SDS011;22957;50.824;4.360;2023-10-08T14:06:21;8.17;;;3.80;;
2390;SDS011;22957;50.824;4.360;2023-10-08T14:08:47;8.53;;;4.53;;
2390;SDS011;22957;50.824;4.360;2023-10-08T14:11:21;13.37;;;4.70;;
2390;SDS011;22957;50.824;4.360;2023-10-08T14:13:55;9.77;;;4.50;;
2390;SDS011;22957;50.824;4.360;2023-10-08T14:16:21;10.33;;;4.30;;
2390;SDS011;22957;50.824;4.360;2023-10-08T14:18:51;14.03;;;5.43;;
2390;SDS011;22957;50.824;4.360;2023-10-08T14:21:24;8.77;;;4.10;;
2390;SDS011;22957;50.824;4.360;2023-10-08T14:23:55;9.60;;;4.40;;
2390;SDS011;22957;50.824;4.360;2023-10-08T14:26:27;10.63;;;4.77;;
2390;SDS011;22957;50.824;4.360;2023-10-08T14:29:00;10.07;;;5.23;;
2390;SDS011;22957;50.824;4.360;2023-10-08T14:31:32;8.00;;;3.90;;
2390;SDS011;22957;50.824;4.360;2023-10-08T14:34:04;11.23;;;4.70;;
2390;SDS011;22957;50.824;4.360;2023-10-08T14:36:31;16.33;;;5.17;;
2390;SDS011;22957;50.824;4.360;2023-10-08T14:39:16;8.03;;;4.33;;
2390;SDS011;22957;50.824;4.360;2023-10-08T14:42:00;8.57;;;4.27;;
2390;SDS011;22957;50.824;4.360;2023-10-08T14:44:45;6.53;;;4.10;;
2390;SDS011;22957;50.824;4.360;2023-10-08T14:47:11;10.57;;;4.80;;
2390;SDS011;22957;50.824;4.360;2023-10-08T14:49:38;6.90;;;3.53;;
2390;SDS011;22957;50.824;4.360;2023-10-08T14:52:04;10.03;;;4.57;;
2390;SDS011;22957;50.824;4.360;2023-10-08T14:54:30;7.93;;;4.53;;
2390;SDS011;22957;50.824;4.360;2023-10-08T14:56:58;13.70;;;5.23;;
2390;SDS011;22957;50.824;4.360;2023-10-08T14:59:24;8.90;;;4.33;;
2390;SDS011;22957;50.824;4.360;2023-10-08T15:01:53;10.73;;;4.60;;
2390;SDS011;22957;50.824;4.360;2023-10-08T15:04:20;9.77;;;4.47;;
2390;SDS011;22957;50.824;4.360;2023-10-08T15:06:46;9.20;;;5.03;;
2390;SDS011;22957;50.824;4.360;2023-10-08T15:09:12;8.77;;;4.63;;
2390;SDS011;22957;50.824;4.360;2023-10-08T15:11:47;14.40;;;5.07;;
2390;SDS011;22957;50.824;4.360;2023-10-08T15:14:13;11.10;;;4.57;;
2390;SDS011;22957;50.824;4.360;2023-10-08T15:16:41;10.73;;;3.93;;
2390;SDS011;22957;50.824;4.360;2023-10-08T15:19:06;7.90;;;4.20;;
2390;SDS011;22957;50.824;4.360;2023-10-08T15:21:37;7.70;;;3.97;;
2390;SDS011;22957;50.824;4.360;2023-10-08T15:24:04;13.30;;;4.03;;
2390;SDS011;22957;50.824;4.360;2023-10-08T15:26:35;9.70;;;4.27;;
2390;SDS011;22957;50.824;4.360;2023-10-08T15:29:02;9.17;;;4.30;;
2390;SDS011;22957;50.824;4.360;2023-10-08T15:31:28;6.33;;;3.50;;